• Join FlightAware (Why Join?)
  • Login
  • US Flag 
05:20AM EST


 

Airport Tracker/Info


-or-


 

Live Flight TrackerFlight Track Log ✈ UAL4663 ✈ 17-Apr-2013 ✈ KRDU - KEWR

Flight Track Log - Related Links

Times and Time Zones

All times are in EDT time to prevent confusion due to time zone crossing. See the UAL4663 flight status page for this flight to view local times or setup timezone preferences in your user account.

Time Position Orientation Groundspeed Altitude Reporting Facility
EDT Latitude Longitude Course Direction KTS MPH feet Rate Location/Type
07:19PM 35.8514 -78.8311 223° Southwest 163 188 2,400  Level Washington Center
07:20PM 35.8267 -78.8994 246° West 238 274 4,300 2,100 Climbing Washington Center
07:21PM 36.1105 -78.6895 39° Northeast  Level FlightAware Approximate
07:21PM 35.8975 -78.8997 360° North 286 329 6,900  Level Washington Center
07:21PM 35.9189 -78.8853 29° Northeast 269 310 7,500 1,980 Climbing Washington Center
07:22PM 36.1911 -78.6586 19° North  Level FlightAware Approximate
07:22PM 35.9908 -78.8472 23° Northeast 301 346 9,700  Level Washington Center
07:23PM 36.2724 -78.6259 15° North  Level FlightAware Approximate
07:23PM 36.0650 -78.8014 27° Northeast 301 346 11,000  Level Washington Center
07:24PM 36.1478 -78.7508 26° Northeast 319 367 12,400 1,500 Climbing Washington Center
07:25PM 36.2453 -78.6956 25° Northeast 340 391 14,000 1,500 Climbing Washington Center
07:26PM 36.3236 -78.6469 27° Northeast 345 397 15,400 1,200 Climbing Washington Center
07:27PM 36.4167 -78.5964 24° Northeast 345 397 16,500 1,080 Climbing Washington Center
07:28PM 36.5156 -78.5614 16° North 357 411 17,600 960 Climbing Washington Center
07:29PM 36.6169 -78.5214 18° North 367 422 18,500 960 Climbing Washington Center
07:30PM 36.7264 -78.4761 18° North 372 428 19,600 960 Climbing Washington Center
07:31PM 36.8172 -78.4328 21° North 377 434 20,500 900 Climbing Washington Center
07:32PM 36.9108 -78.3533 34° Northeast 382 440 21,400 900 Climbing Washington Center
07:33PM 37.0103 -78.2917 26° Northeast 394 453 22,400 1,200 Climbing Washington Center
07:34PM 37.1300 -78.2517 15° North 399 459 23,900 1,440 Climbing Washington Center
07:35PM 37.2294 -78.1925 25° Northeast 394 453 25,300 1,380 Climbing Washington Center
07:36PM 37.3044 -78.0983 45° Northeast 378 435 26,700 1,200 Climbing Washington Center
07:37PM 37.3814 -78.0042 44° Northeast 378 435 27,800 1,020 Climbing Washington Center
07:38PM 37.4606 -77.9100 43° Northeast 378 435 28,800 600 Climbing Washington Center
07:39PM 37.5372 -77.8233 42° Northeast 378 435 29,000 60 Climbing Washington Center
07:40PM 37.6158 -77.7494 37° Northeast 367 422 29,000  Level Washington Center
07:41PM 37.6900 -77.6833 35° Northeast 344 396 29,000  Level Washington Center
07:42PM 37.7661 -77.6144 36° Northeast 344 396 29,000  Level Washington Center
07:43PM 37.8403 -77.5428 37° Northeast 338 389 29,000  Level Washington Center
07:44PM 37.9186 -77.4739 35° Northeast 338 389 29,000  Level Washington Center
07:45PM 38.0053 -77.3942 36° Northeast 352 405 29,000  Level Washington Center
07:46PM 38.0942 -77.3147 35° Northeast 370 426 29,000  Level Washington Center
07:47PM 38.1850 -77.2322 36° Northeast 390 449 29,000  Level Washington Center
07:48PM 38.2758 -77.1442 37° Northeast 400 460 29,000  Level Washington Center
07:49PM 38.3475 -77.0822 34° Northeast 400 460 29,000  Level Washington Center
07:50PM 38.4550 -76.9783 37° Northeast 395 455 29,000  Level Washington Center
07:51PM 38.5436 -76.8950 36° Northeast 395 455 29,000 -180 Level Washington Center
07:52PM 38.6319 -76.8142 36° Northeast 390 449 28,700 -660 Descending Washington Center
07:53PM 38.7203 -76.7278 37° Northeast 390 449 27,700 -780 Descending Washington Center
07:54PM 38.8047 -76.6306 42° Northeast 390 449 27,200 -360 Descending Washington Center
07:55PM 38.8847 -76.5383 42° Northeast 390 449 27,000 -120 Descending Washington Center
07:56PM 38.9667 -76.4433 42° Northeast 390 449 27,000  Level Washington Center
07:57PM 39.0464 -76.3506 42° Northeast 390 449 27,000  Level Washington Center
07:58PM 39.1242 -76.2550 44° Northeast 390 449 27,000  Level Washington Center
07:59PM 39.2017 -76.1675 41° Northeast 385 443 27,000  Level Washington Center
08:00PM 39.2792 -76.0822 40° Northeast 385 443 27,000  Level Washington Center
08:01PM 39.3608 -75.9889 41° Northeast 385 443 27,000 -120 Level Washington Center
08:02PM 39.4486 -75.8844 43° Northeast 396 456 26,800 -720 Descending Washington Center
08:03PM 39.5342 -75.7825 43° Northeast 408 470 25,600 -1,500 Descending Washington Center
08:04PM 39.6178 -75.6831 42° Northeast 408 470 23,800 -1,860 Descending Washington Center
08:05PM 39.6989 -75.5861 43° Northeast 403 464 21,900 -1,920 Descending Washington Center
08:06PM 39.7803 -75.4889 43° Northeast 391 450 20,000 -2,040 Descending Washington Center
08:07PM 39.8572 -75.3969 43° Northeast 391 450 17,900 -2,040 Descending Washington Center
08:08PM 39.9300 -75.3075 43° Northeast 373 429 16,000 -2,100 Descending Washington Center
08:09PM 40.0006 -75.2206 43° Northeast 357 411 13,700 -1,980 Descending Washington Center
08:10PM 40.0669 -75.1386 43° Northeast 334 384 12,100 -1,380 Descending Washington Center
08:11PM 40.1311 -75.0622 42° Northeast 323 372 11,000 -1,200 Descending Washington Center
08:12PM 40.1892 -74.9886 44° Northeast 299 344 9,700 -1,260 Descending Washington Center
08:14PM 40.2667 -74.8833 46° Northeast 284 327 8,100 -840 Descending New York TRACON
08:15PM 40.3333 -74.8000 44° Northeast 280 322 7,800 -900 Descending New York TRACON
08:16PM 40.3833 -74.7333 45° Northeast 272 313 6,400 -900 Descending New York TRACON
08:17PM 40.4333 -74.6667 45° Northeast 253 291 6,000 -720 Descending New York TRACON
08:18PM 40.4333 -74.5667 90° East 260 299 5,000 -1,200 Descending New York TRACON
08:19PM 40.4167 -74.4833 105° East 253 291 3,600 -1,020 Descending New York TRACON
08:20PM 40.4167 -74.4000 90° East 220 253 3,000 -300 Descending New York TRACON
08:21PM 40.4500 -74.3500 49° Northeast 188 216 3,100 -180 Climbing New York TRACON
08:22PM 40.4833 -74.3000 49° Northeast 189 217 2,700 -420 Descending New York TRACON
08:23PM 40.5333 -74.2667 27° Northeast 179 206 2,300 -420 Descending New York TRACON
08:24PM 40.5833 -74.2333 27° Northeast 179 206 1,900 -420 Descending New York TRACON